| time (UTC) | temp C | wind direction | speed KPH | gust KPH | rain 1hr cm | rain 24hr cm | rain mn cm | humidity % | barometer mb |
| 20260906151958 | 22 | 62 | 1.6 | 4.8 | 0.00 | 0.00 | 0.00 | 90 | 1050.3 |
| 20260906151454 | 22 | 127 | 1.6 | 4.8 | 0.00 | 0.00 | 0.00 | 91 | 1050.4 |
| 20260906150949 | 22 | 66 | 3.2 | 3.2 | 0.00 | 0.00 | 0.00 | 92 | 1050.2 |
| 20260906150444 | 22 | 33 | 0.0 | 4.8 | 0.00 | 0.00 | 0.00 | 92 | 1050.3 |
| 20260906145943 | 22 | 2 | 3.2 | 4.8 | 0.00 | 0.00 | 0.00 | 92 | 1050.2 |
| 20260906145438 | 22 | 335 | 1.6 | 4.8 | 0.00 | 0.00 | 0.00 | 91 | 1050.4 |
| 20260906144932 | 22 | 56 | 3.2 | 4.8 | 0.00 | 0.00 | 0.00 | 92 | 1050.2 |
| 20260906144427 | 21 | 324 | 1.6 | 3.2 | 0.00 | 0.00 | 0.00 | 91 | 1050.4 |
| 20260906143923 | 21 | 280 | 1.6 | 3.2 | 0.00 | 0.00 | 0.00 | 92 | 1050.2 |
| 20260906143418 | 21 | 16 | 1.6 | 3.2 | 0.00 | 0.00 | 0.00 | 92 | 1050.2 |
| 20260906142914 | 21 | 139 | 3.2 | 3.2 | 0.00 | 0.00 | 0.00 | 93 | 1050.3 |
| 20260906142413 | 21 | 8 | 1.6 | 1.6 | 0.00 | 0.00 | 0.00 | 92 | 1050.4 |
| 20260906141908 | 21 | 16 | 0.0 | 1.6 | 0.00 | 0.00 | 0.00 | 93 | 1050.2 |
| 20260906141408 | 20 | 22 | 0.0 | 1.6 | 0.00 | 0.00 | 0.00 | 93 | 1050.2 |
| 20260906140902 | 20 | 27 | 0.0 | 1.6 | 0.00 | 0.00 | 0.00 | 94 | 1050.4 |
| 20260906140357 | 20 | 192 | 4.8 | 8.0 | 0.00 | 0.00 | 0.00 | 94 | 1050.1 |
| 20260906135854 | 20 | 24 | 0.0 | 1.6 | 0.00 | 0.00 | 0.00 | 96 | 1050.3 |
| 20260906135349 | 19 | 43 | 1.6 | 3.2 | 0.00 | 0.00 | 0.00 | 97 | 1050.2 |
| 20260906134844 | 18 | 17 | 1.6 | 3.2 | 0.00 | 0.00 | 0.00 | 98 | 1050.3 |
| 20260906134339 | 18 | 28 | 0.0 | 1.6 | 0.00 | 0.00 | 0.00 | 99 | 1050.3 |
| 20260906133835 | 18 | 359 | 0.0 | 1.6 | 0.00 | 0.00 | 0.00 | 99 | 1050.3 |
| 20260906133330 | 18 | 12 | 0.0 | 1.6 | 0.00 | 0.00 | 0.00 | 99 | 1050.0 |
| 20260906132826 | 17 | 0 | 1.6 | 1.6 | 0.00 | 0.00 | 0.00 | 99 | 1050.3 |
| 20260906132320 | 17 | 9 | 1.6 | 1.6 | 0.00 | 0.00 | 0.00 | 99 | 1050.2 |
| 20260906131816 | 17 | 15 | 0.0 | 3.2 | 0.00 | 0.00 | 0.00 | 99 | 1050.3 |
| 20260906131306 | 17 | 355 | 1.6 | 1.6 | 0.00 | 0.00 | 0.00 | 99 | 1050.2 |
| 20260906130801 | 17 | 26 | 0.0 | 1.6 | 0.00 | 0.00 | 0.00 | 99 | 1050.3 |
| 20260906130256 | 17 | 33 | 0.0 | 1.6 | 0.00 | 0.00 | 0.00 | 99 | 1050.2 |
| 20260906125755 | 17 | 24 | 0.0 | 0.0 | 0.00 | 0.00 | 0.00 | 99 | 1050.3 |
| 20260906125252 | 17 | 18 | 0.0 | 1.6 | 0.00 | 0.00 | 0.00 | 99 | 1050.1 |
| 20260906124747 | 17 | 23 | 0.0 | 0.0 | 0.00 | 0.00 | 0.00 | 99 | 1050.2 |
| 20260906124243 | 16 | 23 | 0.0 | 0.0 | 0.00 | 0.00 | 0.00 | 99 | 1050.1 |
| 20260906123741 | 16 | 24 | 0.0 | 0.0 | 0.00 | 0.00 | 0.00 | 99 | 1049.9 |
| 20260906123237 | 16 | 24 | 0.0 | 0.0 | 0.00 | 0.00 | 0.00 | 99 | 1049.9 |
| 20260906122736 | 16 | 24 | 0.0 | 0.0 | 0.00 | 0.00 | 0.00 | 99 | 1050.0 |
| 20260906122231 | 16 | 24 | 0.0 | 0.0 | 0.00 | 0.00 | 0.00 | 99 | 1049.9 |
| 20260906121728 | 15 | 24 | 0.0 | 0.0 | 0.00 | 0.00 | 0.00 | 99 | 1049.9 |
| 20260906121224 | 15 | 24 | 0.0 | 0.0 | 0.00 | 0.00 | 0.00 | 99 | 1049.6 |
| 20260906120719 | 15 | 24 | 0.0 | 0.0 | 0.00 | 0.00 | 0.00 | 99 | 1049.8 |
| 20260906120211 | 15 | 24 | 0.0 | 0.0 | 0.00 | 0.00 | 0.00 | 99 | 1050.0 |
| 20260906115707 | 15 | 24 | 0.0 | 0.0 | 0.00 | 0.00 | 0.00 | 99 | 1049.8 |
| 20260906115201 | 15 | 24 | 0.0 | 0.0 | 0.00 | 0.00 | 0.00 | 99 | 1049.8 |
| 20260906114701 | 15 | 24 | 0.0 | 0.0 | 0.00 | 0.00 | 0.00 | 99 | 1049.8 |
| 20260906114156 | 15 | 24 | 0.0 | 0.0 | 0.00 | 0.00 | 0.00 | 99 | 1049.5 |
| 20260906113656 | 15 | 25 | 0.0 | 0.0 | 0.00 | 0.00 | 0.00 | 99 | 1049.5 |
| 20260906113155 | 15 | 25 | 0.0 | 0.0 | 0.00 | 0.00 | 0.00 | 99 | 1049.7 |
| 20260906112654 | 15 | 26 | 0.0 | 0.0 | 0.00 | 0.00 | 0.00 | 99 | 1049.6 |
| 20260906112152 | 15 | 27 | 0.0 | 0.0 | 0.00 | 0.00 | 0.00 | 99 | 1049.5 |
| 20260906111651 | 15 | 27 | 0.0 | 0.0 | 0.00 | 0.00 | 0.00 | 99 | 1049.3 |
| 20260906111146 | 15 | 36 | 0.0 | 1.6 | 0.00 | 0.00 | 0.00 | 99 | 1049.0 |
| 20260906110641 | 15 | 29 | 0.0 | 0.0 | 0.00 | 0.00 | 0.00 | 99 | 1048.9 |
| 20260906110136 | 15 | 21 | 0.0 | 0.0 | 0.00 | 0.00 | 0.00 | 99 | 1048.8 |
| 20260906105630 | 15 | 21 | 0.0 | 0.0 | 0.00 | 0.00 | 0.00 | 99 | 1048.9 |
| 20260906105127 | 15 | 21 | 0.0 | 0.0 | 0.00 | 0.00 | 0.00 | 99 | 1048.7 |
| 20260906104626 | 15 | 22 | 0.0 | 0.0 | 0.00 | 0.00 | 0.00 | 99 | 1048.7 |
| 20260906104125 | 15 | 22 | 0.0 | 0.0 | 0.00 | 0.00 | 0.00 | 99 | 1048.7 |
| 20260906103623 | 15 | 22 | 0.0 | 0.0 | 0.00 | 0.00 | 0.00 | 99 | 1048.8 |
| 20260906103119 | 15 | 13 | 0.0 | 0.0 | 0.00 | 0.00 | 0.00 | 99 | 1048.9 |
| 20260906102614 | 15 | 23 | 0.0 | 0.0 | 0.00 | 0.00 | 0.00 | 99 | 1048.8 |
| 20260906102108 | 15 | 23 | 0.0 | 0.0 | 0.00 | 0.00 | 0.00 | 99 | 1048.8 |
| 20260906101602 | 15 | 23 | 0.0 | 0.0 | 0.00 | 0.00 | 0.00 | 99 | 1048.9 |
| 20260906101057 | 15 | 23 | 0.0 | 0.0 | 0.00 | 0.00 | 0.00 | 99 | 1048.6 |
| 20260906100553 | 15 | 23 | 0.0 | 0.0 | 0.00 | 0.00 | 0.00 | 99 | 1048.9 |
| 20260906100048 | 15 | 23 | 0.0 | 0.0 | 0.00 | 0.00 | 0.00 | 99 | 1048.7 |
| 20260906095547 | 15 | 23 | 0.0 | 0.0 | 0.00 | 0.00 | 0.00 | 99 | 1048.7 |
| 20260906095043 | 16 | 23 | 0.0 | 0.0 | 0.00 | 0.00 | 0.00 | 99 | 1048.9 |
| 20260906094542 | 16 | 22 | 0.0 | 0.0 | 0.00 | 0.00 | 0.00 | 99 | 1048.6 |
| 20260906094038 | 16 | 23 | 0.0 | 0.0 | 0.00 | 0.00 | 0.00 | 99 | 1048.6 |
| 20260906093533 | 16 | 22 | 0.0 | 0.0 | 0.00 | 0.00 | 0.00 | 99 | 1048.6 |
| 20260906093028 | 16 | 23 | 0.0 | 0.0 | 0.00 | 0.00 | 0.00 | 99 | 1048.9 |
| 20260906092523 | 16 | 24 | 0.0 | 0.0 | 0.00 | 0.00 | 0.00 | 99 | 1048.9 |
| 20260906092018 | 16 | 23 | 0.0 | 0.0 | 0.00 | 0.00 | 0.00 | 99 | 1048.9 |
| 20260906091514 | 16 | 22 | 0.0 | 0.0 | 0.00 | 0.00 | 0.00 | 99 | 1048.8 |
| 20260906091011 | 16 | 22 | 0.0 | 0.0 | 0.00 | 0.00 | 0.00 | 99 | 1048.8 |
| 20260906090510 | 16 | 23 | 0.0 | 0.0 | 0.00 | 0.00 | 0.00 | 99 | 1048.7 |
| 20260906090005 | 16 | 23 | 0.0 | 0.0 | 0.00 | 0.00 | 0.00 | 99 | 1048.5 |
| 20260906085504 | 16 | 23 | 0.0 | 0.0 | 0.00 | 0.00 | 0.00 | 99 | 1048.7 |
| 20260906085004 | 16 | 23 | 0.0 | 0.0 | 0.00 | 0.00 | 0.00 | 99 | 1048.7 |
| 20260906084458 | 16 | 23 | 0.0 | 0.0 | 0.00 | 0.00 | 0.00 | 99 | 1048.8 |
| 20260906083957 | 16 | 15 | 0.0 | 0.0 | 0.00 | 0.00 | 0.00 | 99 | 1048.7 |
| 20260906083453 | 16 | 17 | 0.0 | 0.0 | 0.00 | 0.00 | 0.00 | 99 | 1048.6 |
| 20260906082952 | 16 | 19 | 0.0 | 0.0 | 0.00 | 0.00 | 0.00 | 99 | 1048.8 |
| 20260906082448 | 16 | 19 | 0.0 | 0.0 | 0.00 | 0.00 | 0.00 | 99 | 1048.8 |
| 20260906081943 | 16 | 19 | 0.0 | 0.0 | 0.00 | 0.00 | 0.00 | 99 | 1048.7 |
| 20260906081438 | 16 | 20 | 0.0 | 0.0 | 0.00 | 0.00 | 0.00 | 99 | 1048.6 |
| 20260906080934 | 16 | 20 | 0.0 | 0.0 | 0.00 | 0.00 | 0.00 | 99 | 1048.5 |
| 20260906080431 | 16 | 20 | 0.0 | 0.0 | 0.00 | 0.00 | 0.00 | 99 | 1048.5 |
| 20260906075931 | 16 | 20 | 0.0 | 0.0 | 0.00 | 0.00 | 0.00 | 99 | 1048.3 |
| 20260906075426 | 16 | 20 | 0.0 | 0.0 | 0.00 | 0.00 | 0.00 | 99 | 1048.6 |
| 20260906074920 | 16 | 20 | 0.0 | 0.0 | 0.00 | 0.00 | 0.00 | 99 | 1048.4 |
| 20260906074415 | 16 | 20 | 0.0 | 0.0 | 0.00 | 0.00 | 0.00 | 99 | 1048.3 |
| 20260906073914 | 16 | 20 | 0.0 | 0.0 | 0.00 | 0.00 | 0.00 | 99 | 1048.5 |
| 20260906073409 | 16 | 20 | 0.0 | 0.0 | 0.00 | 0.00 | 0.00 | 99 | 1048.6 |
| 20260906072905 | 16 | 20 | 0.0 | 0.0 | 0.00 | 0.00 | 0.00 | 99 | 1048.5 |
| 20260906072401 | 17 | 25 | 0.0 | 0.0 | 0.00 | 0.00 | 0.00 | 99 | 1048.6 |
| 20260906071856 | 16 | 25 | 0.0 | 0.0 | 0.00 | 0.00 | 0.00 | 99 | 1048.7 |
| 20260906071351 | 16 | 32 | 0.0 | 0.0 | 0.00 | 0.00 | 0.00 | 99 | 1048.7 |
| 20260906070847 | 16 | 32 | 0.0 | 0.0 | 0.00 | 0.00 | 0.00 | 99 | 1048.8 |
| 20260906070343 | 16 | 32 | 0.0 | 0.0 | 0.00 | 0.00 | 0.00 | 99 | 1048.9 |
| 20260906065838 | 16 | 34 | 0.0 | 0.0 | 0.00 | 0.00 | 0.00 | 99 | 1049.1 |
| 20260906065333 | 16 | 16 | 0.0 | 0.0 | 0.00 | 0.00 | 0.00 | 99 | 1048.9 |
| 20260906064829 | 17 | 16 | 0.0 | 0.0 | 0.00 | 0.00 | 0.00 | 99 | 1048.9 |
| 20260906064325 | 17 | 16 | 0.0 | 0.0 | 0.00 | 0.00 | 0.00 | 99 | 1048.7 |
| 20260906063825 | 17 | 16 | 0.0 | 0.0 | 0.00 | 0.00 | 0.00 | 99 | 1049.1 |
| 20260906063320 | 17 | 16 | 0.0 | 0.0 | 0.00 | 0.00 | 0.00 | 99 | 1049.1 |
| 20260906062815 | 17 | 16 | 0.0 | 0.0 | 0.00 | 0.00 | 0.00 | 99 | 1048.9 |
| 20260906062314 | 17 | 16 | 0.0 | 0.0 | 0.00 | 0.00 | 0.00 | 99 | 1049.0 |
| 20260906061810 | 17 | 16 | 0.0 | 0.0 | 0.00 | 0.00 | 0.00 | 99 | 1048.9 |
| 20260906061306 | 17 | 16 | 0.0 | 0.0 | 0.00 | 0.00 | 0.00 | 99 | 1049.1 |
| 20260906060801 | 17 | 16 | 0.0 | 0.0 | 0.00 | 0.00 | 0.00 | 99 | 1048.9 |
| 20260906060259 | 17 | 16 | 0.0 | 0.0 | 0.00 | 0.00 | 0.00 | 99 | 1049.0 |
| 20260906055754 | 17 | 16 | 0.0 | 0.0 | 0.00 | 0.00 | 0.00 | 99 | 1048.9 |
| 20260906055249 | 17 | 16 | 0.0 | 0.0 | 0.00 | 0.00 | 0.00 | 99 | 1048.8 |
| 20260906054745 | 17 | 16 | 0.0 | 0.0 | 0.00 | 0.00 | 0.00 | 99 | 1048.9 |
| 20260906054240 | 17 | 16 | 0.0 | 0.0 | 0.00 | 0.00 | 0.00 | 99 | 1048.7 |
| 20260906053737 | 17 | 15 | 0.0 | 1.6 | 0.00 | 0.00 | 0.00 | 99 | 1048.7 |
| 20260906053232 | 17 | 17 | 0.0 | 0.0 | 0.00 | 0.00 | 0.00 | 99 | 1048.8 |
| 20260906052727 | 17 | 17 | 0.0 | 0.0 | 0.00 | 0.00 | 0.00 | 99 | 1048.8 |
| 20260906052223 | 18 | 17 | 0.0 | 0.0 | 0.00 | 0.00 | 0.00 | 99 | 1048.7 |
| 20260906051720 | 18 | 16 | 0.0 | 0.0 | 0.00 | 0.00 | 0.00 | 99 | 1049.0 |
| 20260906051219 | 18 | 17 | 0.0 | 0.0 | 0.00 | 0.00 | 0.00 | 99 | 1048.7 |
| 20260906050715 | 18 | 17 | 0.0 | 0.0 | 0.00 | 0.00 | 0.00 | 99 | 1048.8 |
| 20260906050210 | 18 | 24 | 0.0 | 0.0 | 0.00 | 0.00 | 0.00 | 99 | 1048.9 |
| 20260906045708 | 18 | 23 | 0.0 | 0.0 | 0.00 | 0.00 | 0.00 | 99 | 1048.7 |
| 20260906045203 | 18 | 25 | 0.0 | 0.0 | 0.00 | 0.00 | 0.00 | 98 | 1048.6 |
| 20260906044659 | 18 | 18 | 0.0 | 0.0 | 0.00 | 0.00 | 0.00 | 98 | 1048.6 |
| 20260906044154 | 18 | 18 | 0.0 | 0.0 | 0.00 | 0.00 | 0.00 | 98 | 1048.6 |
| 20260906043650 | 18 | 18 | 0.0 | 0.0 | 0.00 | 0.00 | 0.00 | 98 | 1048.6 |
| 20260906043146 | 19 | 18 | 0.0 | 0.0 | 0.00 | 0.00 | 0.00 | 97 | 1048.6 |
| 20260906042645 | 19 | 18 | 0.0 | 0.0 | 0.00 | 0.00 | 0.00 | 97 | 1048.5 |
| 20260906042139 | 19 | 17 | 0.0 | 0.0 | 0.00 | 0.00 | 0.00 | 97 | 1048.5 |
| 20260906041635 | 19 | 17 | 0.0 | 0.0 | 0.00 | 0.00 | 0.00 | 97 | 1048.2 |
| 20260906041130 | 20 | 15 | 0.0 | 1.6 | 0.00 | 0.00 | 0.00 | 97 | 1048.1 |
| 20260906040626 | 20 | 24 | 0.0 | 0.0 | 0.00 | 0.00 | 0.00 | 96 | 1048.4 |
| 20260906040121 | 20 | 25 | 0.0 | 0.0 | 0.00 | 0.00 | 0.00 | 96 | 1048.1 |
| 20260906035616 | 20 | 10 | 0.0 | 1.6 | 0.00 | 0.00 | 0.00 | 96 | 1048.0 |
| 20260906035112 | 20 | 18 | 1.6 | 1.6 | 0.00 | 0.00 | 0.00 | 96 | 1047.9 |
| 20260906034612 | 20 | 348 | 1.6 | 1.6 | 0.00 | 0.00 | 0.00 | 96 | 1047.9 |
| 20260906034106 | 20 | 20 | 0.0 | 0.0 | 0.00 | 0.00 | 0.00 | 96 | 1048.2 |
| 20260906033602 | 20 | 20 | 0.0 | 3.2 | 0.00 | 0.00 | 0.00 | 96 | 1048.0 |
| 20260906033057 | 20 | 11 | 0.0 | 1.6 | 0.00 | 0.00 | 0.00 | 95 | 1048.0 |
| 20260906032553 | 20 | 15 | 0.0 | 1.6 | 0.00 | 0.00 | 0.00 | 95 | 1048.2 |
| 20260906032048 | 20 | 356 | 1.6 | 1.6 | 0.00 | 0.00 | 0.00 | 95 | 1047.8 |
| 20260906031543 | 21 | 356 | 1.6 | 1.6 | 0.00 | 0.00 | 0.00 | 94 | 1047.8 |
| 20260906031039 | 21 | 326 | 0.0 | 1.6 | 0.00 | 0.00 | 0.00 | 94 | 1047.8 |
| 20260906030538 | 21 | 323 | 1.6 | 3.2 | 0.00 | 0.00 | 0.00 | 94 | 1047.8 |
| 20260906030037 | 21 | 301 | 3.2 | 4.8 | 0.00 | 0.00 | 0.00 | 94 | 1047.9 |
| 20260906025532 | 21 | 33 | 1.6 | 4.8 | 0.00 | 0.00 | 0.00 | 93 | 1047.6 |
| 20260906025030 | 21 | 353 | 1.6 | 3.2 | 0.00 | 0.00 | 0.00 | 93 | 1047.6 |
| 20260906024525 | 21 | 267 | 1.6 | 3.2 | 0.00 | 0.00 | 0.00 | 93 | 1047.4 |
| 20260906024020 | 21 | 327 | 4.8 | 8.0 | 0.00 | 0.00 | 0.00 | 92 | 1047.7 |
| 20260906023516 | 22 | 29 | 3.2 | 8.0 | 0.00 | 0.00 | 0.00 | 92 | 1047.4 |
| 20260906023011 | 22 | 318 | 1.6 | 3.2 | 0.00 | 0.00 | 0.00 | 92 | 1047.2 |
| 20260906022506 | 22 | 240 | 4.8 | 4.8 | 0.00 | 0.00 | 0.00 | 93 | 1047.1 |
| 20260906022001 | 22 | 5 | 0.0 | 9.7 | 0.00 | 0.00 | 0.00 | 93 | 1047.1 |
| 20260906021456 | 22 | 346 | 1.6 | 3.2 | 0.00 | 0.00 | 0.00 | 94 | 1047.0 |
| 20260906020951 | 22 | 357 | 0.0 | 1.6 | 0.00 | 0.00 | 0.00 | 94 | 1047.1 |
| 20260906020445 | 22 | 9 | 0.0 | 1.6 | 0.00 | 0.00 | 0.00 | 94 | 1046.7 |
| 20260906015944 | 22 | 337 | 1.6 | 3.2 | 0.00 | 0.00 | 0.00 | 94 | 1046.8 |
| 20260906015444 | 22 | 15 | 0.0 | 1.6 | 0.00 | 0.00 | 0.00 | 94 | 1046.6 |
| 20260906014944 | 22 | 344 | 1.6 | 3.2 | 0.00 | 0.00 | 0.00 | 94 | 1046.5 |
| 20260906014438 | 22 | 346 | 1.6 | 3.2 | 0.00 | 0.00 | 0.00 | 94 | 1046.5 |
| 20260906013934 | 22 | 11 | 0.0 | 1.6 | 0.00 | 0.00 | 0.00 | 95 | 1046.5 |
| 20260906013430 | 21 | 25 | 0.0 | 0.0 | 0.00 | 0.00 | 0.00 | 95 | 1046.3 |
| 20260906012926 | 22 | 26 | 0.0 | 1.6 | 0.00 | 0.00 | 0.00 | 94 | 1046.3 |
| 20260906012425 | 22 | 11 | 0.0 | 1.6 | 0.00 | 0.00 | 0.00 | 94 | 1046.1 |
| 20260906011924 | 21 | 345 | 1.6 | 1.6 | 0.00 | 0.00 | 0.00 | 95 | 1046.2 |
| 20260906011420 | 21 | 15 | 0.0 | 0.0 | 0.00 | 0.00 | 0.00 | 95 | 1046.2 |
| 20260906010915 | 21 | 12 | 1.6 | 1.6 | 0.00 | 0.00 | 0.00 | 95 | 1046.4 |
| 20260906010411 | 21 | 8 | 0.0 | 1.6 | 0.00 | 0.00 | 0.00 | 95 | 1046.1 |
| 20260906005907 | 21 | 9 | 1.6 | 1.6 | 0.00 | 0.00 | 0.00 | 96 | 1046.3 |
| 20260906005406 | 21 | 21 | 0.0 | 0.0 | 0.00 | 0.00 | 0.00 | 95 | 1046.3 |
| 20260906004904 | 21 | 26 | 0.0 | 0.0 | 0.00 | 0.00 | 0.00 | 95 | 1046.2 |
| 20260906004359 | 21 | 14 | 0.0 | 1.6 | 0.00 | 0.00 | 0.00 | 95 | 1046.3 |
| 20260906003854 | 21 | 19 | 0.0 | 0.0 | 0.00 | 0.00 | 0.00 | 95 | 1046.3 |
| 20260906003349 | 21 | 22 | 0.0 | 0.0 | 0.00 | 0.00 | 0.00 | 95 | 1046.2 |
| 20260906002845 | 21 | 22 | 0.0 | 0.0 | 0.00 | 0.00 | 0.00 | 95 | 1046.2 |
| 20260906002344 | 21 | 22 | 0.0 | 0.0 | 0.00 | 0.00 | 0.00 | 95 | 1046.3 |
| 20260906001840 | 21 | 22 | 0.0 | 0.0 | 0.00 | 0.00 | 0.00 | 94 | 1046.7 |
| 20260906001336 | 22 | 22 | 0.0 | 0.0 | 0.00 | 0.00 | 0.00 | 94 | 1046.6 |
| 20260906000830 | 22 | 22 | 0.0 | 0.0 | 0.00 | 0.00 | 0.00 | 94 | 1046.5 |
| 20260906000326 | 22 | 21 | 0.0 | 0.0 | 0.00 | 0.00 | 0.00 | 93 | 1046.6 |
| 20260905235825 | 22 | 23 | 0.0 | 0.0 | 0.00 | 0.00 | 0.00 | 94 | 1046.4 |
| 20260905235320 | 22 | 23 | 0.0 | 0.0 | 0.00 | 0.00 | 0.00 | 93 | 1046.2 |
| 20260905234815 | 22 | 23 | 0.0 | 0.0 | 0.00 | 0.00 | 0.00 | 93 | 1046.5 |
| 20260905234310 | 22 | 23 | 0.0 | 0.0 | 0.00 | 0.00 | 0.00 | 93 | 1046.5 |
| 20260905233805 | 22 | 23 | 0.0 | 0.0 | 0.00 | 0.00 | 0.00 | 92 | 1046.3 |
| 20260905233300 | 23 | 23 | 0.0 | 0.0 | 0.00 | 0.00 | 0.00 | 92 | 1046.5 |
| 20260905232759 | 23 | 23 | 0.0 | 0.0 | 0.00 | 0.00 | 0.00 | 90 | 1046.4 |
| 20260905232255 | 24 | 23 | 0.0 | 1.6 | 0.00 | 0.00 | 0.00 | 89 | 1046.3 |
| 20260905231751 | 25 | 24 | 0.0 | 0.0 | 0.00 | 0.00 | 0.00 | 87 | 1046.3 |
| 20260905231246 | 25 | 19 | 0.0 | 1.6 | 0.00 | 0.00 | 0.00 | 85 | 1046.2 |
| 20260905230742 | 25 | 319 | 3.2 | 3.2 | 0.00 | 0.00 | 0.00 | 83 | 1046.1 |
| 20260905230239 | 25 | 23 | 1.6 | 3.2 | 0.00 | 0.00 | 0.00 | 83 | 1046.2 |
| 20260905225734 | 25 | 18 | 0.0 | 1.6 | 0.00 | 0.00 | 0.00 | 82 | 1046.5 |
| 20260905225229 | 26 | 268 | 1.6 | 4.8 | 0.00 | 0.00 | 0.00 | 81 | 1046.8 |
| 20260905224728 | 26 | 312 | 3.2 | 3.2 | 0.00 | 0.00 | 0.00 | 80 | 1046.5 |
| 20260905224224 | 26 | 62 | 0.0 | 3.2 | 0.00 | 0.00 | 0.00 | 82 | 1046.4 |
| 20260905223720 | 26 | 27 | 0.0 | 1.6 | 0.00 | 0.00 | 0.00 | 83 | 1046.4 |
| 20260905223217 | 26 | 12 | 1.6 | 3.2 | 0.00 | 0.00 | 0.00 | 83 | 1046.3 |
| 20260905222712 | 26 | 25 | 0.0 | 8.0 | 0.00 | 0.00 | 0.00 | 82 | 1046.1 |
| 20260905222211 | 26 | 240 | 3.2 | 4.8 | 0.00 | 0.00 | 0.00 | 82 | 1046.2 |
| 20260905221707 | 26 | 40 | 1.6 | 3.2 | 0.00 | 0.00 | 0.00 | 82 | 1046.2 |
| 20260905221204 | 26 | 354 | 4.8 | 4.8 | 0.00 | 0.00 | 0.00 | 81 | 1046.2 |
| 20260905220659 | 26 | 319 | 3.2 | 8.0 | 0.00 | 0.00 | 0.00 | 82 | 1046.1 |
| 20260905220155 | 26 | 20 | 0.0 | 9.7 | 0.00 | 0.00 | 0.00 | 82 | 1045.8 |
| 20260905215654 | 26 | 36 | 3.2 | 3.2 | 0.00 | 0.00 | 0.00 | 81 | 1046.0 |
| 20260905215150 | 26 | 316 | 6.4 | 8.0 | 0.00 | 0.00 | 0.00 | 81 | 1045.8 |
| 20260905214646 | 26 | 339 | 1.6 | 4.8 | 0.00 | 0.00 | 0.00 | 80 | 1046.1 |
| 20260905214141 | 26 | 28 | 0.0 | 4.8 | 0.00 | 0.00 | 0.00 | 79 | 1046.2 |
| 20260905213636 | 26 | 4 | 1.6 | 3.2 | 0.00 | 0.00 | 0.00 | 80 | 1046.2 |
| 20260905213132 | 26 | 261 | 4.8 | 4.8 | 0.00 | 0.00 | 0.00 | 78 | 1046.1 |
| 20260905212627 | 26 | 15 | 0.0 | 3.2 | 0.00 | 0.00 | 0.00 | 79 | 1045.9 |
| 20260905212126 | 26 | 36 | 0.0 | 1.6 | 0.00 | 0.00 | 0.00 | 80 | 1046.2 |
| 20260905211621 | 26 | 286 | 3.2 | 4.8 | 0.00 | 0.00 | 0.00 | 78 | 1046.2 |
| 20260905211117 | 26 | 19 | 1.6 | 3.2 | 0.00 | 0.00 | 0.00 | 80 | 1046.2 |
| 20260905210613 | 26 | 32 | 0.0 | 1.6 | 0.00 | 0.00 | 0.00 | 80 | 1046.3 |
| 20260905210108 | 26 | 335 | 3.2 | 3.2 | 0.00 | 0.00 | 0.00 | 79 | 1046.4 |
| 20260905205607 | 26 | 355 | 1.6 | 3.2 | 0.00 | 0.00 | 0.00 | 81 | 1046.5 |
| 20260905205107 | 26 | 18 | 1.6 | 4.8 | 0.00 | 0.00 | 0.00 | 82 | 1046.3 |
| 20260905204606 | 26 | 7 | 1.6 | 4.8 | 0.00 | 0.00 | 0.00 | 82 | 1046.2 |
| 20260905204101 | 26 | 277 | 1.6 | 4.8 | 0.00 | 0.00 | 0.00 | 81 | 1046.6 |
| 20260905203556 | 26 | 19 | 0.0 | 3.2 | 0.00 | 0.00 | 0.00 | 81 | 1046.4 |
| 20260905203051 | 26 | 344 | 3.2 | 4.8 | 0.00 | 0.00 | 0.00 | 79 | 1046.5 |
| 20260905202547 | 26 | 8 | 1.6 | 3.2 | 0.00 | 0.00 | 0.00 | 78 | 1046.5 |
| 20260905202042 | 27 | 28 | 3.2 | 4.8 | 0.00 | 0.00 | 0.00 | 77 | 1046.4 |
| 20260905201538 | 27 | 14 | 1.6 | 4.8 | 0.00 | 0.00 | 0.00 | 77 | 1046.3 |
| 20260905201037 | 26 | 334 | 1.6 | 4.8 | 0.00 | 0.00 | 0.00 | 79 | 1046.2 |
| 20260905200533 | 27 | 278 | 3.2 | 8.0 | 0.00 | 0.00 | 0.00 | 79 | 1046.2 |
| 20260905200032 | 27 | 299 | 6.4 | 8.0 | 0.00 | 0.00 | 0.00 | 79 | 1046.2 |
| 20260905195526 | 26 | 244 | 6.4 | 9.7 | 0.00 | 0.00 | 0.00 | 81 | 1046.3 |
| 20260905195022 | 27 | 266 | 6.4 | 9.7 | 0.00 | 0.00 | 0.00 | 80 | 1046.0 |
| 20260905194521 | 26 | 282 | 3.2 | 8.0 | 0.00 | 0.00 | 0.00 | 82 | 1046.4 |
| 20260905194015 | 27 | 261 | 3.2 | 11.3 | 0.00 | 0.00 | 0.00 | 82 | 1046.2 |
| 20260905193510 | 27 | 8 | 1.6 | 11.3 | 0.00 | 0.00 | 0.00 | 81 | 1046.2 |
| 20260905193006 | 27 | 293 | 3.2 | 8.0 | 0.00 | 0.00 | 0.00 | 82 | 1046.5 |
| 20260905192501 | 27 | 306 | 3.2 | 8.0 | 0.00 | 0.00 | 0.00 | 82 | 1046.5 |
| 20260905191957 | 26 | 20 | 3.2 | 9.7 | 0.00 | 0.00 | 0.00 | 83 | 1046.3 |
| 20260905191455 | 27 | 300 | 1.6 | 4.8 | 0.00 | 0.00 | 0.00 | 81 | 1046.5 |
| 20260905190954 | 26 | 32 | 1.6 | 4.8 | 0.00 | 0.00 | 0.00 | 82 | 1046.2 |
| 20260905190452 | 26 | 338 | 1.6 | 8.0 | 0.00 | 0.00 | 0.00 | 82 | 1046.2 |
| 20260905185951 | 27 | 315 | 3.2 | 4.8 | 0.00 | 0.00 | 0.00 | 81 | 1046.2 |
| 20260905185447 | 26 | 15 | 1.6 | 4.8 | 0.00 | 0.00 | 0.00 | 81 | 1046.5 |
| 20260905184945 | 26 | 28 | 1.6 | 3.2 | 0.00 | 0.00 | 0.00 | 84 | 1046.4 |
| 20260905184440 | 26 | 2 | 3.2 | 8.0 | 0.00 | 0.00 | 0.00 | 84 | 1046.4 |
| 20260905183939 | 26 | 334 | 1.6 | 1.6 | 0.00 | 0.00 | 0.00 | 83 | 1046.5 |
| 20260905183433 | 26 | 26 | 0.0 | 3.2 | 0.00 | 0.00 | 0.00 | 88 | 1046.5 |
| 20260905182929 | 25 | 23 | 0.0 | 3.2 | 0.00 | 0.00 | 0.00 | 88 | 1046.8 |
| 20260905182428 | 25 | 31 | 1.6 | 4.8 | 0.00 | 0.00 | 0.00 | 88 | 1046.8 |
| 20260905181924 | 25 | 25 | 1.6 | 1.6 | 0.00 | 0.00 | 0.00 | 88 | 1046.8 |
| 20260905181418 | 25 | 44 | 0.0 | 4.8 | 0.00 | 0.00 | 0.00 | 89 | 1046.7 |
| 20260905180917 | 24 | 12 | 0.0 | 3.2 | 0.00 | 0.00 | 0.00 | 90 | 1046.8 |
| 20260905180413 | 24 | 303 | 1.6 | 3.2 | 0.00 | 0.00 | 0.00 | 91 | 1046.9 |
| 20260905175913 | 24 | 344 | 1.6 | 1.6 | 0.00 | 0.00 | 0.00 | 90 | 1046.7 |
| 20260905175412 | 24 | 21 | 3.2 | 3.2 | 0.00 | 0.00 | 0.00 | 91 | 1047.0 |
| 20260905174907 | 23 | 344 | 1.6 | 3.2 | 0.00 | 0.00 | 0.00 | 92 | 1046.9 |
| 20260905174403 | 23 | 310 | 1.6 | 3.2 | 0.00 | 0.00 | 0.00 | 92 | 1047.0 |
| 20260905173858 | 23 | 322 | 3.2 | 4.8 | 0.00 | 0.00 | 0.00 | 92 | 1046.9 |
| 20260905173355 | 23 | 28 | 0.0 | 3.2 | 0.00 | 0.00 | 0.00 | 92 | 1047.1 |
| 20260905172849 | 23 | 352 | 1.6 | 3.2 | 0.00 | 0.00 | 0.00 | 91 | 1047.2 |
| 20260905172347 | 23 | 29 | 1.6 | 3.2 | 0.00 | 0.00 | 0.00 | 91 | 1047.1 |
| 20260905171843 | 23 | 43 | 1.6 | 4.8 | 0.00 | 0.00 | 0.00 | 91 | 1047.1 |
| 20260905171340 | 23 | 350 | 1.6 | 3.2 | 0.00 | 0.00 | 0.00 | 91 | 1046.9 |
| 20260905170836 | 23 | 45 | 1.6 | 4.8 | 0.00 | 0.00 | 0.00 | 91 | 1046.8 |
| 20260905170332 | 23 | 257 | 1.6 | 4.8 | 0.00 | 0.00 | 0.00 | 91 | 1047.1 |
| 20260905165831 | 23 | 315 | 1.6 | 4.8 | 0.00 | 0.00 | 0.00 | 92 | 1047.1 |
| 20260905165327 | 23 | 24 | 0.0 | 8.0 | 0.00 | 0.00 | 0.00 | 92 | 1047.1 |
| 20260905164826 | 23 | 7 | 1.6 | 3.2 | 0.00 | 0.00 | 0.00 | 92 | 1047.1 |
| 20260905164321 | 23 | 309 | 3.2 | 3.2 | 0.00 | 0.00 | 0.00 | 92 | 1047.5 |
| 20260905163817 | 23 | 348 | 1.6 | 3.2 | 0.00 | 0.00 | 0.00 | 93 | 1047.4 |
| 20260905163313 | 23 | 292 | 4.8 | 8.0 | 0.00 | 0.00 | 0.00 | 93 | 1047.5 |
| 20260905162809 | 23 | 313 | 1.6 | 8.0 | 0.00 | 0.00 | 0.00 | 93 | 1047.2 |
| 20260905162305 | 23 | 354 | 1.6 | 3.2 | 0.00 | 0.00 | 0.00 | 93 | 1047.2 |
| 20260905161757 | 23 | 346 | 1.6 | 4.8 | 0.00 | 0.00 | 0.00 | 93 | 1047.0 |
| 20260905161256 | 23 | 269 | 3.2 | 4.8 | 0.00 | 0.00 | 0.00 | 93 | 1047.2 |
| 20260905160755 | 23 | 326 | 4.8 | 4.8 | 0.00 | 0.00 | 0.00 | 93 | 1047.4 |
| 20260905160249 | 23 | 333 | 0.0 | 1.6 | 0.00 | 0.00 | 0.00 | 93 | 1047.0 |
| 20260905155744 | 23 | 350 | 1.6 | 4.8 | 0.00 | 0.00 | 0.00 | 93 | 1047.0 |
| 20260905155243 | 23 | 11 | 1.6 | 4.8 | 0.00 | 0.00 | 0.00 | 93 | 1047.0 |
| 20260905154737 | 23 | 339 | 1.6 | 3.2 | 0.00 | 0.00 | 0.00 | 93 | 1047.0 |
| 20260905154233 | 23 | 7 | 1.6 | 3.2 | 0.00 | 0.00 | 0.00 | 93 | 1046.8 |
| 20260905153728 | 23 | 348 | 1.6 | 3.2 | 0.00 | 0.00 | 0.00 | 94 | 1046.9 |
| 20260905153224 | 23 | 25 | 0.0 | 1.6 | 0.00 | 0.00 | 0.00 | 94 | 1046.8 |
| 20260905152719 | 23 | 337 | 0.0 | 1.6 | 0.00 | 0.00 | 0.00 | 94 | 1047.0 |
| 20260905152219 | 23 | 17 | 0.0 | 1.6 | 0.00 | 0.00 | 0.00 | 94 | 1046.9 |